PWSweather.com
Personal Weather Stations
Station Observations
K4FB1
Clubhouse Heritage, Lakeland, FL 33812

Clubhouse HeritageLakeland, FL 33812

Lat: 27.969224, Lon: -81.897769

Elevation: 145

Station Type: Davis Vantage Pro2

http://www.ClubhouseWX.com

High Low Average
Temperature 88.9°F31.6°C 69.5°F20.8°C 75.7°F24.3°C
Dew Point 77.8°F25.4°C 68.1°F20.1°C 72.6°F22.6°C
Winds 12.0 mph 19.3 kmh Calm Calm 3.0 mph SSW4.8 kmh SSW
Wind Gusts 24.0 mph38.6 kmh 2.0 mph3.2 kmh 8.0 mph12.9 kmh
Humidity 97% 67% 90%
Pressure 29.96 in1014.6 mb 29.83 in1010.2 mb -
Precipitation 0.82 in20.8 mm - -
Hour Temp Dew Point Humidity Winds Wind Gusts Pressure Precip Precip Rate Daily Precip Total
12:00 AM 77.0°F25.0°C 74.2°F23.4°C 91% 3.0 mph S4.8 kmh S 6.0 mph9.7 kmh 29.87 in1011.5 mb 0.00 in0.0 mm 0.00 in0.0 mm 0.00 in0.0 mm
12:05 AM 77.0°F25.0°C 74.2°F23.4°C 91% 4.0 mph S6.4 kmh S 7.0 mph11.3 kmh 29.86 in1011.2 mb 0.00 in0.0 mm 0.00 in0.0 mm 0.00 in0.0 mm
12:10 AM 77.0°F25.0°C 74.2°F23.4°C 91% 4.0 mph SSE6.4 kmh SSE 9.0 mph14.5 kmh 29.86 in1011.2 mb 0.00 in0.0 mm 0.00 in0.0 mm 0.00 in0.0 mm
12:15 AM 76.9°F24.9°C 74.1°F23.4°C 91% 5.0 mph SSE8.0 kmh SSE 9.0 mph14.5 kmh 29.85 in1010.8 mb 0.00 in0.0 mm 0.00 in0.0 mm 0.00 in0.0 mm
12:20 AM 76.9°F24.9°C 74.1°F23.4°C 91% 5.0 mph SSE8.0 kmh SSE 10.0 mph16.1 kmh 29.84 in1010.5 mb 0.00 in0.0 mm 0.00 in0.0 mm 0.00 in0.0 mm
12:25 AM 76.9°F24.9°C 74.1°F23.4°C 91% 5.0 mph SSE8.0 kmh SSE 10.0 mph16.1 kmh 29.84 in1010.5 mb 0.00 in0.0 mm 0.00 in0.0 mm 0.00 in0.0 mm
12:30 AM 76.8°F24.9°C 74.0°F23.3°C 91% 5.0 mph SSE8.0 kmh SSE 10.0 mph16.1 kmh 29.84 in1010.5 mb 0.00 in0.0 mm 0.00 in0.0 mm 0.00 in0.0 mm
12:35 AM 76.8°F24.9°C 74.0°F23.3°C 91% 4.0 mph S6.4 kmh S 10.0 mph16.1 kmh 29.85 in1010.8 mb 0.00 in0.0 mm 0.00 in0.0 mm 0.00 in0.0 mm
12:40 AM 76.8°F24.9°C 74.0°F23.3°C 91% 4.0 mph S6.4 kmh S 9.0 mph14.5 kmh 29.85 in1010.8 mb 0.00 in0.0 mm 0.00 in0.0 mm 0.00 in0.0 mm
12:45 AM 76.7°F24.8°C 73.9°F23.3°C 91% 3.0 mph S4.8 kmh S 6.0 mph9.7 kmh 29.85 in1010.8 mb 0.00 in0.0 mm 0.00 in0.0 mm 0.00 in0.0 mm
12:50 AM 76.7°F24.8°C 73.9°F23.3°C 91% 3.0 mph S4.8 kmh S 6.0 mph9.7 kmh 29.85 in1010.8 mb 0.00 in0.0 mm 0.00 in0.0 mm 0.00 in0.0 mm
12:55 AM 76.6°F24.8°C 73.8°F23.2°C 91% 3.0 mph S4.8 kmh S 6.0 mph9.7 kmh 29.85 in1010.8 mb 0.00 in0.0 mm 0.00 in0.0 mm 0.00 in0.0 mm
01:00 AM 76.6°F24.8°C 73.8°F23.2°C 91% 2.0 mph S3.2 kmh S 5.0 mph8.0 kmh 29.85 in1010.8 mb 0.00 in0.0 mm 0.00 in0.0 mm 0.00 in0.0 mm
01:05 AM 76.5°F24.7°C 73.7°F23.2°C 91% 2.0 mph S3.2 kmh S 5.0 mph8.0 kmh 29.85 in1010.8 mb 0.00 in0.0 mm 0.00 in0.0 mm 0.00 in0.0 mm
01:10 AM 76.4°F24.7°C 73.6°F23.1°C 91% 2.0 mph S3.2 kmh S 3.0 mph4.8 kmh 29.85 in1010.8 mb 0.00 in0.0 mm 0.00 in0.0 mm 0.00 in0.0 mm
01:15 AM 76.3°F24.6°C 73.5°F23.1°C 91% 1.0 mph S1.6 kmh S 5.0 mph8.0 kmh 29.85 in1010.8 mb 0.00 in0.0 mm 0.00 in0.0 mm 0.00 in0.0 mm
01:20 AM 76.2°F24.6°C 73.4°F23.0°C 91% 2.0 mph S3.2 kmh S 5.0 mph8.0 kmh 29.85 in1010.8 mb 0.00 in0.0 mm 0.00 in0.0 mm 0.00 in0.0 mm
01:25 AM 76.2°F24.6°C 73.7°F23.2°C 92% 2.0 mph S3.2 kmh S 7.0 mph11.3 kmh 29.85 in1010.8 mb 0.00 in0.0 mm 0.00 in0.0 mm 0.00 in0.0 mm
01:30 AM 76.1°F24.5°C 73.6°F23.1°C 92% 3.0 mph S4.8 kmh S 7.0 mph11.3 kmh 29.85 in1010.8 mb 0.00 in0.0 mm 0.00 in0.0 mm 0.00 in0.0 mm
01:35 AM 76.0°F24.4°C 73.5°F23.1°C 92% 2.0 mph S3.2 kmh S 5.0 mph8.0 kmh 29.85 in1010.8 mb 0.00 in0.0 mm 0.00 in0.0 mm 0.00 in0.0 mm
01:40 AM 75.9°F24.4°C 73.4°F23.0°C 92% 2.0 mph S3.2 kmh S 4.0 mph6.4 kmh 29.85 in1010.8 mb 0.00 in0.0 mm 0.00 in0.0 mm 0.00 in0.0 mm
01:45 AM 75.8°F24.3°C 73.3°F22.9°C 92% 1.0 mph S1.6 kmh S 4.0 mph6.4 kmh 29.85 in1010.8 mb 0.00 in0.0 mm 0.00 in0.0 mm 0.00 in0.0 mm
01:50 AM 75.7°F24.3°C 73.2°F22.9°C 92% 2.0 mph S3.2 kmh S 4.0 mph6.4 kmh 29.85 in1010.8 mb 0.00 in0.0 mm 0.00 in0.0 mm 0.00 in0.0 mm
01:55 AM 75.6°F24.2°C 73.4°F23.0°C 93% 2.0 mph S3.2 kmh S 5.0 mph8.0 kmh 29.84 in1010.5 mb 0.00 in0.0 mm 0.00 in0.0 mm 0.00 in0.0 mm
02:00 AM 75.5°F24.2°C 73.3°F22.9°C 93% 2.0 mph S3.2 kmh S 5.0 mph8.0 kmh 29.84 in1010.5 mb 0.00 in0.0 mm 0.00 in0.0 mm 0.00 in0.0 mm
02:05 AM 75.5°F24.2°C 73.3°F22.9°C 93% 2.0 mph S3.2 kmh S 4.0 mph6.4 kmh 29.84 in1010.5 mb 0.00 in0.0 mm 0.00 in0.0 mm 0.00 in0.0 mm
02:10 AM 75.4°F24.1°C 73.2°F22.9°C 93% 2.0 mph S3.2 kmh S 4.0 mph6.4 kmh 29.85 in1010.8 mb 0.00 in0.0 mm 0.00 in0.0 mm 0.00 in0.0 mm
02:15 AM 75.3°F24.1°C 73.1°F22.8°C 93% 2.0 mph S3.2 kmh S 5.0 mph8.0 kmh 29.85 in1010.8 mb 0.00 in0.0 mm 0.00 in0.0 mm 0.00 in0.0 mm
02:20 AM 75.2°F24.0°C 73.0°F22.8°C 93% 2.0 mph S3.2 kmh S 5.0 mph8.0 kmh 29.85 in1010.8 mb 0.00 in0.0 mm 0.00 in0.0 mm 0.00 in0.0 mm
02:25 AM 75.2°F24.0°C 73.4°F23.0°C 94% 2.0 mph S3.2 kmh S 5.0 mph8.0 kmh 29.85 in1010.8 mb 0.00 in0.0 mm 0.00 in0.0 mm 0.00 in0.0 mm
02:30 AM 75.2°F24.0°C 73.4°F23.0°C 94% 2.0 mph SSW3.2 kmh SSW 6.0 mph9.7 kmh 29.85 in1010.8 mb 0.00 in0.0 mm 0.00 in0.0 mm 0.00 in0.0 mm
02:35 AM 75.2°F24.0°C 73.4°F23.0°C 94% 3.0 mph SSW4.8 kmh SSW 7.0 mph11.3 kmh 29.85 in1010.8 mb 0.00 in0.0 mm 0.00 in0.0 mm 0.00 in0.0 mm
02:40 AM 75.2°F24.0°C 73.4°F23.0°C 94% 3.0 mph S4.8 kmh S 7.0 mph11.3 kmh 29.85 in1010.8 mb 0.00 in0.0 mm 0.00 in0.0 mm 0.00 in0.0 mm
02:45 AM 75.1°F23.9°C 73.3°F22.9°C 94% 3.0 mph S4.8 kmh S 6.0 mph9.7 kmh 29.84 in1010.5 mb 0.00 in0.0 mm 0.00 in0.0 mm 0.00 in0.0 mm
02:50 AM 75.1°F23.9°C 73.3°F22.9°C 94% 2.0 mph S3.2 kmh S 6.0 mph9.7 kmh 29.85 in1010.8 mb 0.00 in0.0 mm 0.00 in0.0 mm 0.00 in0.0 mm
02:55 AM 75.0°F23.9°C 73.2°F22.9°C 94% 2.0 mph S3.2 kmh S 5.0 mph8.0 kmh 29.85 in1010.8 mb 0.00 in0.0 mm 0.00 in0.0 mm 0.00 in0.0 mm
03:00 AM 75.1°F23.9°C 73.3°F22.9°C 94% 2.0 mph SSW3.2 kmh SSW 5.0 mph8.0 kmh 29.84 in1010.5 mb 0.00 in0.0 mm 0.00 in0.0 mm 0.00 in0.0 mm
03:05 AM 75.0°F23.9°C 73.2°F22.9°C 94% 2.0 mph SSW3.2 kmh SSW 5.0 mph8.0 kmh 29.85 in1010.8 mb 0.00 in0.0 mm 0.00 in0.0 mm 0.00 in0.0 mm
03:10 AM 75.1°F23.9°C 73.6°F23.1°C 95% 2.0 mph SSW3.2 kmh SSW 5.0 mph8.0 kmh 29.85 in1010.8 mb 0.00 in0.0 mm 0.00 in0.0 mm 0.00 in0.0 mm
03:15 AM 75.1°F23.9°C 73.6°F23.1°C 95% 2.0 mph SW3.2 kmh SW 5.0 mph8.0 kmh 29.85 in1010.8 mb 0.00 in0.0 mm 0.00 in0.0 mm 0.00 in0.0 mm
03:20 AM 75.1°F23.9°C 73.6°F23.1°C 95% 3.0 mph SSW4.8 kmh SSW 7.0 mph11.3 kmh 29.84 in1010.5 mb 0.00 in0.0 mm 0.00 in0.0 mm 0.00 in0.0 mm
03:25 AM 75.1°F23.9°C 73.6°F23.1°C 95% 4.0 mph S6.4 kmh S 7.0 mph11.3 kmh 29.84 in1010.5 mb 0.00 in0.0 mm 0.00 in0.0 mm 0.00 in0.0 mm
03:30 AM 75.1°F23.9°C 73.6°F23.1°C 95% 3.0 mph S4.8 kmh S 7.0 mph11.3 kmh 29.84 in1010.5 mb 0.00 in0.0 mm 0.00 in0.0 mm 0.00 in0.0 mm
03:35 AM 75.2°F24.0°C 73.7°F23.2°C 95% 3.0 mph S4.8 kmh S 9.0 mph14.5 kmh 29.84 in1010.5 mb 0.00 in0.0 mm 0.00 in0.0 mm 0.00 in0.0 mm
03:40 AM 75.1°F23.9°C 73.6°F23.1°C 95% 3.0 mph S4.8 kmh S 9.0 mph14.5 kmh 29.84 in1010.5 mb 0.00 in0.0 mm 0.00 in0.0 mm 0.00 in0.0 mm
03:45 AM 75.2°F24.0°C 73.7°F23.2°C 95% 3.0 mph S4.8 kmh S 8.0 mph12.9 kmh 29.84 in1010.5 mb 0.00 in0.0 mm 0.00 in0.0 mm 0.00 in0.0 mm
03:50 AM 75.2°F24.0°C 73.7°F23.2°C 95% 3.0 mph SSW4.8 kmh SSW 8.0 mph12.9 kmh 29.84 in1010.5 mb 0.00 in0.0 mm 0.00 in0.0 mm 0.00 in0.0 mm
03:55 AM 75.2°F24.0°C 73.7°F23.2°C 95% 2.0 mph SSW3.2 kmh SSW 10.0 mph16.1 kmh 29.84 in1010.5 mb 0.00 in0.0 mm 0.00 in0.0 mm 0.00 in0.0 mm
04:00 AM 75.3°F24.1°C 73.8°F23.2°C 95% 3.0 mph SSW4.8 kmh SSW 10.0 mph16.1 kmh 29.84 in1010.5 mb 0.00 in0.0 mm 0.00 in0.0 mm 0.00 in0.0 mm
04:05 AM 75.2°F24.0°C 73.7°F23.2°C 95% 2.0 mph S3.2 kmh S 8.0 mph12.9 kmh 29.84 in1010.5 mb 0.00 in0.0 mm 0.00 in0.0 mm 0.00 in0.0 mm
04:10 AM 75.2°F24.0°C 73.7°F23.2°C 95% 2.0 mph S3.2 kmh S 5.0 mph8.0 kmh 29.84 in1010.5 mb 0.00 in0.0 mm 0.00 in0.0 mm 0.00 in0.0 mm
04:15 AM 75.2°F24.0°C 74.0°F23.3°C 96% 2.0 mph SW3.2 kmh SW 8.0 mph12.9 kmh 29.84 in1010.5 mb 0.00 in0.0 mm 0.00 in0.0 mm 0.00 in0.0 mm
04:20 AM 75.3°F24.1°C 74.1°F23.4°C 96% 3.0 mph SW4.8 kmh SW 8.0 mph12.9 kmh 29.84 in1010.5 mb 0.00 in0.0 mm 0.00 in0.0 mm 0.00 in0.0 mm
04:25 AM 75.3°F24.1°C 74.1°F23.4°C 96% 3.0 mph SSW4.8 kmh SSW 7.0 mph11.3 kmh 29.84 in1010.5 mb 0.00 in0.0 mm 0.00 in0.0 mm 0.00 in0.0 mm
04:30 AM 75.3°F24.1°C 74.1°F23.4°C 96% 2.0 mph S3.2 kmh S 6.0 mph9.7 kmh 29.84 in1010.5 mb 0.00 in0.0 mm 0.00 in0.0 mm 0.00 in0.0 mm
04:35 AM 75.3°F24.1°C 74.1°F23.4°C 96% 2.0 mph S3.2 kmh S 5.0 mph8.0 kmh 29.84 in1010.5 mb 0.00 in0.0 mm 0.00 in0.0 mm 0.00 in0.0 mm
04:40 AM 75.3°F24.1°C 74.1°F23.4°C 96% 2.0 mph S3.2 kmh S 6.0 mph9.7 kmh 29.84 in1010.5 mb 0.00 in0.0 mm 0.00 in0.0 mm 0.00 in0.0 mm
04:45 AM 75.3°F24.1°C 74.1°F23.4°C 96% 3.0 mph S4.8 kmh S 6.0 mph9.7 kmh 29.84 in1010.5 mb 0.00 in0.0 mm 0.00 in0.0 mm 0.00 in0.0 mm
04:50 AM 75.3°F24.1°C 74.1°F23.4°C 96% 3.0 mph S4.8 kmh S 6.0 mph9.7 kmh 29.84 in1010.5 mb 0.00 in0.0 mm 0.00 in0.0 mm 0.00 in0.0 mm
04:55 AM 75.3°F24.1°C 74.1°F23.4°C 96% 2.0 mph SSW3.2 kmh SSW 6.0 mph9.7 kmh 29.85 in1010.8 mb 0.00 in0.0 mm 0.00 in0.0 mm 0.00 in0.0 mm
05:00 AM 75.3°F24.1°C 74.1°F23.4°C 96% 2.0 mph SW3.2 kmh SW 6.0 mph9.7 kmh 29.84 in1010.5 mb 0.00 in0.0 mm 0.00 in0.0 mm 0.00 in0.0 mm
05:05 AM 75.3°F24.1°C 74.1°F23.4°C 96% 2.0 mph SW3.2 kmh SW 6.0 mph9.7 kmh 29.85 in1010.8 mb 0.00 in0.0 mm 0.00 in0.0 mm 0.00 in0.0 mm
05:10 AM 75.3°F24.1°C 74.1°F23.4°C 96% 2.0 mph SW3.2 kmh SW 6.0 mph9.7 kmh 29.85 in1010.8 mb 0.00 in0.0 mm 0.00 in0.0 mm 0.00 in0.0 mm
05:15 AM 75.3°F24.1°C 74.1°F23.4°C 96% 2.0 mph SW3.2 kmh SW 6.0 mph9.7 kmh 29.85 in1010.8 mb 0.00 in0.0 mm 0.00 in0.0 mm 0.00 in0.0 mm
05:20 AM 75.3°F24.1°C 74.1°F23.4°C 96% 2.0 mph SW3.2 kmh SW 6.0 mph9.7 kmh 29.85 in1010.8 mb 0.00 in0.0 mm 0.00 in0.0 mm 0.00 in0.0 mm
05:25 AM 75.3°F24.1°C 74.1°F23.4°C 96% 2.0 mph SW3.2 kmh SW 5.0 mph8.0 kmh 29.86 in1011.2 mb 0.00 in0.0 mm 0.00 in0.0 mm 0.00 in0.0 mm
05:30 AM 75.3°F24.1°C 74.1°F23.4°C 96% 2.0 mph SW3.2 kmh SW 5.0 mph8.0 kmh 29.86 in1011.2 mb 0.00 in0.0 mm 0.00 in0.0 mm 0.00 in0.0 mm
05:35 AM 75.3°F24.1°C 74.1°F23.4°C 96% 2.0 mph S3.2 kmh S 6.0 mph9.7 kmh 29.85 in1010.8 mb 0.00 in0.0 mm 0.00 in0.0 mm 0.00 in0.0 mm
05:40 AM 75.3°F24.1°C 74.1°F23.4°C 96% 3.0 mph S4.8 kmh S 6.0 mph9.7 kmh 29.85 in1010.8 mb 0.00 in0.0 mm 0.00 in0.0 mm 0.00 in0.0 mm
05:45 AM 75.2°F24.0°C 74.0°F23.3°C 96% 3.0 mph S4.8 kmh S 5.0 mph8.0 kmh 29.85 in1010.8 mb 0.00 in0.0 mm 0.00 in0.0 mm 0.00 in0.0 mm
05:50 AM 75.2°F24.0°C 74.0°F23.3°C 96% 2.0 mph S3.2 kmh S 5.0 mph8.0 kmh 29.85 in1010.8 mb 0.00 in0.0 mm 0.00 in0.0 mm 0.00 in0.0 mm
05:55 AM 75.2°F24.0°C 74.0°F23.3°C 96% 2.0 mph S3.2 kmh S 3.0 mph4.8 kmh 29.86 in1011.2 mb 0.00 in0.0 mm 0.00 in0.0 mm 0.00 in0.0 mm
06:00 AM 75.1°F23.9°C 73.9°F23.3°C 96% 2.0 mph S3.2 kmh S 4.0 mph6.4 kmh 29.86 in1011.2 mb 0.00 in0.0 mm 0.00 in0.0 mm 0.00 in0.0 mm
06:05 AM 75.2°F24.0°C 74.3°F23.5°C 97% 2.0 mph S3.2 kmh S 5.0 mph8.0 kmh 29.86 in1011.2 mb 0.00 in0.0 mm 0.00 in0.0 mm 0.00 in0.0 mm
06:10 AM 75.2°F24.0°C 74.3°F23.5°C 97% 2.0 mph S3.2 kmh S 5.0 mph8.0 kmh 29.86 in1011.2 mb 0.00 in0.0 mm 0.00 in0.0 mm 0.00 in0.0 mm
06:15 AM 75.2°F24.0°C 74.3°F23.5°C 97% 2.0 mph SSW3.2 kmh SSW 5.0 mph8.0 kmh 29.87 in1011.5 mb 0.00 in0.0 mm 0.00 in0.0 mm 0.00 in0.0 mm
06:20 AM 75.2°F24.0°C 74.3°F23.5°C 97% 2.0 mph SSW3.2 kmh SSW 3.0 mph4.8 kmh 29.86 in1011.2 mb 0.00 in0.0 mm 0.00 in0.0 mm 0.00 in0.0 mm
06:25 AM 75.2°F24.0°C 74.3°F23.5°C 97% 2.0 mph SSW3.2 kmh SSW 5.0 mph8.0 kmh 29.87 in1011.5 mb 0.00 in0.0 mm 0.00 in0.0 mm 0.00 in0.0 mm
06:30 AM 75.2°F24.0°C 74.3°F23.5°C 97% 2.0 mph S3.2 kmh S 5.0 mph8.0 kmh 29.87 in1011.5 mb 0.00 in0.0 mm 0.00 in0.0 mm 0.00 in0.0 mm
06:35 AM 75.2°F24.0°C 74.3°F23.5°C 97% 3.0 mph S4.8 kmh S 5.0 mph8.0 kmh 29.87 in1011.5 mb 0.00 in0.0 mm 0.00 in0.0 mm 0.00 in0.0 mm
06:40 AM 75.2°F24.0°C 74.3°F23.5°C 97% 3.0 mph S4.8 kmh S 6.0 mph9.7 kmh 29.87 in1011.5 mb 0.00 in0.0 mm 0.00 in0.0 mm 0.00 in0.0 mm
06:45 AM 75.2°F24.0°C 74.3°F23.5°C 97% 3.0 mph S4.8 kmh S 6.0 mph9.7 kmh 29.87 in1011.5 mb 0.00 in0.0 mm 0.00 in0.0 mm 0.00 in0.0 mm
06:50 AM 75.3°F24.1°C 74.4°F23.6°C 97% 3.0 mph S4.8 kmh S 6.0 mph9.7 kmh 29.87 in1011.5 mb 0.00 in0.0 mm 0.00 in0.0 mm 0.00 in0.0 mm
06:55 AM 75.3°F24.1°C 74.4°F23.6°C 97% 3.0 mph S4.8 kmh S 7.0 mph11.3 kmh 29.87 in1011.5 mb 0.00 in0.0 mm 0.00 in0.0 mm 0.00 in0.0 mm
07:00 AM 75.4°F24.1°C 74.5°F23.6°C 97% 3.0 mph S4.8 kmh S 7.0 mph11.3 kmh 29.87 in1011.5 mb 0.00 in0.0 mm 0.00 in0.0 mm 0.00 in0.0 mm
07:05 AM 75.5°F24.2°C 74.6°F23.7°C 97% 2.0 mph SSW3.2 kmh SSW 5.0 mph8.0 kmh 29.88 in1011.9 mb 0.00 in0.0 mm 0.00 in0.0 mm 0.00 in0.0 mm
07:10 AM 75.7°F24.3°C 74.8°F23.8°C 97% 2.0 mph SSW3.2 kmh SSW 7.0 mph11.3 kmh 29.88 in1011.9 mb 0.00 in0.0 mm 0.00 in0.0 mm 0.00 in0.0 mm
07:15 AM 75.8°F24.3°C 74.9°F23.8°C 97% 2.0 mph S3.2 kmh S 7.0 mph11.3 kmh 29.88 in1011.9 mb 0.00 in0.0 mm 0.00 in0.0 mm 0.00 in0.0 mm
07:20 AM 75.9°F24.4°C 75.0°F23.9°C 97% 3.0 mph SSW4.8 kmh SSW 8.0 mph12.9 kmh 29.88 in1011.9 mb 0.00 in0.0 mm 0.00 in0.0 mm 0.00 in0.0 mm
07:25 AM 76.0°F24.4°C 75.1°F23.9°C 97% 2.0 mph SSW3.2 kmh SSW 8.0 mph12.9 kmh 29.89 in1012.2 mb 0.00 in0.0 mm 0.00 in0.0 mm 0.00 in0.0 mm
07:30 AM 76.1°F24.5°C 74.9°F23.8°C 96% 2.0 mph SW3.2 kmh SW 8.0 mph12.9 kmh 29.88 in1011.9 mb 0.00 in0.0 mm 0.00 in0.0 mm 0.00 in0.0 mm
07:35 AM 76.3°F24.6°C 75.1°F23.9°C 96% 3.0 mph SW4.8 kmh SW 8.0 mph12.9 kmh 29.89 in1012.2 mb 0.00 in0.0 mm 0.00 in0.0 mm 0.00 in0.0 mm
07:40 AM 76.4°F24.7°C 75.2°F24.0°C 96% 3.0 mph SW4.8 kmh SW 7.0 mph11.3 kmh 29.89 in1012.2 mb 0.00 in0.0 mm 0.00 in0.0 mm 0.00 in0.0 mm
07:45 AM 76.5°F24.7°C 75.3°F24.1°C 96% 3.0 mph SSW4.8 kmh SSW 7.0 mph11.3 kmh 29.90 in1012.5 mb 0.00 in0.0 mm 0.00 in0.0 mm 0.00 in0.0 mm
07:50 AM 76.7°F24.8°C 75.5°F24.2°C 96% 2.0 mph SW3.2 kmh SW 7.0 mph11.3 kmh 29.90 in1012.5 mb 0.00 in0.0 mm 0.00 in0.0 mm 0.00 in0.0 mm
07:55 AM 77.0°F25.0°C 75.5°F24.2°C 95% 3.0 mph SW4.8 kmh SW 8.0 mph12.9 kmh 29.90 in1012.5 mb 0.00 in0.0 mm 0.00 in0.0 mm 0.00 in0.0 mm
08:00 AM 77.3°F25.2°C 75.8°F24.3°C 95% 3.0 mph SSW4.8 kmh SSW 8.0 mph12.9 kmh 29.90 in1012.5 mb 0.00 in0.0 mm 0.00 in0.0 mm 0.00 in0.0 mm
08:05 AM 77.5°F25.3°C 76.0°F24.4°C 95% 3.0 mph SSW4.8 kmh SSW 9.0 mph14.5 kmh 29.90 in1012.5 mb 0.00 in0.0 mm 0.00 in0.0 mm 0.00 in0.0 mm
08:10 AM 77.8°F25.4°C 75.9°F24.4°C 94% 3.0 mph S4.8 kmh S 9.0 mph14.5 kmh 29.90 in1012.5 mb 0.00 in0.0 mm 0.00 in0.0 mm 0.00 in0.0 mm
08:15 AM 78.0°F25.6°C 76.1°F24.5°C 94% 3.0 mph SSW4.8 kmh SSW 8.0 mph12.9 kmh 29.90 in1012.5 mb 0.00 in0.0 mm 0.00 in0.0 mm 0.00 in0.0 mm
08:20 AM 78.3°F25.7°C 76.4°F24.7°C 94% 2.0 mph SSW3.2 kmh SSW 7.0 mph11.3 kmh 29.90 in1012.5 mb 0.00 in0.0 mm 0.00 in0.0 mm 0.00 in0.0 mm
08:25 AM 78.7°F25.9°C 76.5°F24.7°C 93% 3.0 mph SSW4.8 kmh SSW 9.0 mph14.5 kmh 29.90 in1012.5 mb 0.00 in0.0 mm 0.00 in0.0 mm 0.00 in0.0 mm
08:30 AM 79.2°F26.2°C 77.0°F25.0°C 93% 3.0 mph S4.8 kmh S 10.0 mph16.1 kmh 29.90 in1012.5 mb 0.00 in0.0 mm 0.00 in0.0 mm 0.00 in0.0 mm
08:35 AM 79.5°F26.4°C 77.0°F25.0°C 92% 3.0 mph S4.8 kmh S 10.0 mph16.1 kmh 29.91 in1012.9 mb 0.00 in0.0 mm 0.00 in0.0 mm 0.00 in0.0 mm
08:40 AM 79.8°F26.6°C 76.9°F24.9°C 91% 4.0 mph S6.4 kmh S 9.0 mph14.5 kmh 29.91 in1012.9 mb 0.00 in0.0 mm 0.00 in0.0 mm 0.00 in0.0 mm
08:45 AM 80.0°F26.7°C 76.8°F24.9°C 90% 4.0 mph SSW6.4 kmh SSW 9.0 mph14.5 kmh 29.91 in1012.9 mb 0.00 in0.0 mm 0.00 in0.0 mm 0.00 in0.0 mm
08:50 AM 80.2°F26.8°C 77.0°F25.0°C 90% 4.0 mph SW6.4 kmh SW 9.0 mph14.5 kmh 29.91 in1012.9 mb 0.00 in0.0 mm 0.00 in0.0 mm 0.00 in0.0 mm
08:55 AM 80.2°F26.8°C 76.7°F24.8°C 89% 5.0 mph SSW8.0 kmh SSW 11.0 mph17.7 kmh 29.91 in1012.9 mb 0.00 in0.0 mm 0.00 in0.0 mm 0.00 in0.0 mm
09:00 AM 80.2°F26.8°C 76.7°F24.8°C 89% 5.0 mph SSW8.0 kmh SSW 11.0 mph17.7 kmh 29.90 in1012.5 mb 0.00 in0.0 mm 0.00 in0.0 mm 0.00 in0.0 mm
09:05 AM 80.4°F26.9°C 76.9°F24.9°C 89% 4.0 mph SSW6.4 kmh SSW 10.0 mph16.1 kmh 29.90 in1012.5 mb 0.00 in0.0 mm 0.00 in0.0 mm 0.00 in0.0 mm
09:10 AM 81.0°F27.2°C 76.8°F24.9°C 87% 4.0 mph S6.4 kmh S 10.0 mph16.1 kmh 29.90 in1012.5 mb 0.00 in0.0 mm 0.00 in0.0 mm 0.00 in0.0 mm
09:15 AM 81.6°F27.6°C 77.0°F25.0°C 86% 4.0 mph SSW6.4 kmh SSW 10.0 mph16.1 kmh 29.90 in1012.5 mb 0.00 in0.0 mm 0.00 in0.0 mm 0.00 in0.0 mm
09:20 AM 81.9°F27.7°C 76.9°F24.9°C 85% 4.0 mph SW6.4 kmh SW 10.0 mph16.1 kmh 29.90 in1012.5 mb 0.00 in0.0 mm 0.00 in0.0 mm 0.00 in0.0 mm
09:25 AM 82.3°F27.9°C 77.0°F25.0°C 84% 3.0 mph SW4.8 kmh SW 10.0 mph16.1 kmh 29.90 in1012.5 mb 0.00 in0.0 mm 0.00 in0.0 mm 0.00 in0.0 mm
09:30 AM 83.0°F28.3°C 77.3°F25.2°C 83% 3.0 mph SW4.8 kmh SW 8.0 mph12.9 kmh 29.89 in1012.2 mb 0.00 in0.0 mm 0.00 in0.0 mm 0.00 in0.0 mm
09:35 AM 83.2°F28.4°C 76.8°F24.9°C 81% 3.0 mph SW4.8 kmh SW 11.0 mph17.7 kmh 29.89 in1012.2 mb 0.00 in0.0 mm 0.00 in0.0 mm 0.00 in0.0 mm
09:40 AM 83.7°F28.7°C 76.5°F24.7°C 79% 4.0 mph SW6.4 kmh SW 11.0 mph17.7 kmh 29.89 in1012.2 mb 0.00 in0.0 mm 0.00 in0.0 mm 0.00 in0.0 mm
09:45 AM 83.9°F28.8°C 76.3°F24.6°C 78% 5.0 mph S8.0 kmh S 12.0 mph19.3 kmh 29.88 in1011.9 mb 0.00 in0.0 mm 0.00 in0.0 mm 0.00 in0.0 mm
09:50 AM 84.1°F28.9°C 76.5°F24.7°C 78% 6.0 mph SSW9.7 kmh SSW 12.0 mph19.3 kmh 29.89 in1012.2 mb 0.00 in0.0 mm 0.00 in0.0 mm 0.00 in0.0 mm
09:55 AM 84.3°F29.1°C 76.7°F24.8°C 78% 5.0 mph SW8.0 kmh SW 12.0 mph19.3 kmh 29.88 in1011.9 mb 0.00 in0.0 mm 0.00 in0.0 mm 0.00 in0.0 mm
10:00 AM 84.5°F29.2°C 76.1°F24.5°C 76% 5.0 mph SW8.0 kmh SW 14.0 mph22.5 kmh 29.89 in1012.2 mb 0.00 in0.0 mm 0.00 in0.0 mm 0.00 in0.0 mm
10:05 AM 84.4°F29.1°C 76.0°F24.4°C 76% 5.0 mph SSW8.0 kmh SSW 14.0 mph22.5 kmh 29.89 in1012.2 mb 0.00 in0.0 mm 0.00 in0.0 mm 0.00 in0.0 mm
10:10 AM 84.8°F29.3°C 76.0°F24.4°C 75% 4.0 mph SSW6.4 kmh SSW 15.0 mph24.1 kmh 29.88 in1011.9 mb 0.00 in0.0 mm 0.00 in0.0 mm 0.00 in0.0 mm
10:15 AM 85.4°F29.7°C 76.6°F24.8°C 75% 5.0 mph SSW8.0 kmh SSW 15.0 mph24.1 kmh 29.89 in1012.2 mb 0.00 in0.0 mm 0.00 in0.0 mm 0.00 in0.0 mm
10:20 AM 85.9°F29.9°C 77.1°F25.1°C 75% 6.0 mph SSW9.7 kmh SSW 12.0 mph19.3 kmh 29.88 in1011.9 mb 0.00 in0.0 mm 0.00 in0.0 mm 0.00 in0.0 mm
10:25 AM 86.3°F30.2°C 76.2°F24.6°C 72% 5.0 mph SSW8.0 kmh SSW 12.0 mph19.3 kmh 29.88 in1011.9 mb 0.00 in0.0 mm 0.00 in0.0 mm 0.00 in0.0 mm
10:30 AM 86.8°F30.4°C 76.7°F24.8°C 72% 5.0 mph SW8.0 kmh SW 12.0 mph19.3 kmh 29.88 in1011.9 mb 0.00 in0.0 mm 0.00 in0.0 mm 0.00 in0.0 mm
10:35 AM 86.7°F30.4°C 76.6°F24.8°C 72% 5.0 mph SSW8.0 kmh SSW 12.0 mph19.3 kmh 29.88 in1011.9 mb 0.00 in0.0 mm 0.00 in0.0 mm 0.00 in0.0 mm
10:40 AM 86.6°F30.3°C 76.5°F24.7°C 72% 4.0 mph SW6.4 kmh SW 12.0 mph19.3 kmh 29.87 in1011.5 mb 0.00 in0.0 mm 0.00 in0.0 mm 0.00 in0.0 mm
10:45 AM 87.3°F30.7°C 75.9°F24.4°C 69% 5.0 mph S8.0 kmh S 15.0 mph24.1 kmh 29.87 in1011.5 mb 0.00 in0.0 mm 0.00 in0.0 mm 0.00 in0.0 mm
10:50 AM 87.2°F30.7°C 75.8°F24.3°C 69% 7.0 mph S11.3 kmh S 16.0 mph25.7 kmh 29.87 in1011.5 mb 0.00 in0.0 mm 0.00 in0.0 mm 0.00 in0.0 mm
10:55 AM 87.2°F30.7°C 77.5°F25.3°C 73% 6.0 mph SSW9.7 kmh SSW 16.0 mph25.7 kmh 29.87 in1011.5 mb 0.00 in0.0 mm 0.00 in0.0 mm 0.00 in0.0 mm
11:00 AM 87.0°F30.6°C 77.3°F25.2°C 73% 4.0 mph SW6.4 kmh SW 9.0 mph14.5 kmh 29.87 in1011.5 mb 0.00 in0.0 mm 0.00 in0.0 mm 0.00 in0.0 mm
11:05 AM 86.6°F30.3°C 76.1°F24.5°C 71% 5.0 mph SW8.0 kmh SW 14.0 mph22.5 kmh 29.87 in1011.5 mb 0.00 in0.0 mm 0.00 in0.0 mm 0.00 in0.0 mm
11:10 AM 85.9°F29.9°C 77.1°F25.1°C 75% 5.0 mph SSW8.0 kmh SSW 14.0 mph22.5 kmh 29.88 in1011.9 mb 0.00 in0.0 mm 0.00 in0.0 mm 0.00 in0.0 mm
11:15 AM 86.3°F30.2°C 77.0°F25.0°C 74% 5.0 mph SW8.0 kmh SW 12.0 mph19.3 kmh 29.87 in1011.5 mb 0.00 in0.0 mm 0.00 in0.0 mm 0.00 in0.0 mm
11:20 AM 87.1°F30.6°C 76.5°F24.7°C 71% 4.0 mph SW6.4 kmh SW 12.0 mph19.3 kmh 29.87 in1011.5 mb 0.00 in0.0 mm 0.00 in0.0 mm 0.00 in0.0 mm
11:25 AM 87.8°F31.0°C 77.6°F25.3°C 72% 5.0 mph SW8.0 kmh SW 12.0 mph19.3 kmh 29.87 in1011.5 mb 0.00 in0.0 mm 0.00 in0.0 mm 0.00 in0.0 mm
11:30 AM 88.4°F31.3°C 77.8°F25.4°C 71% 4.0 mph SW6.4 kmh SW 12.0 mph19.3 kmh 29.86 in1011.2 mb 0.00 in0.0 mm 0.00 in0.0 mm 0.00 in0.0 mm
11:35 AM 88.9°F31.6°C 76.5°F24.7°C 67% 4.0 mph SW6.4 kmh SW 12.0 mph19.3 kmh 29.87 in1011.5 mb 0.00 in0.0 mm 0.00 in0.0 mm 0.00 in0.0 mm
11:40 AM 87.8°F31.0°C 75.5°F24.2°C 67% 6.0 mph SW9.7 kmh SW 18.0 mph29.0 kmh 29.87 in1011.5 mb 0.00 in0.0 mm 0.00 in0.0 mm 0.00 in0.0 mm
11:45 AM 86.0°F30.0°C 75.5°F24.2°C 71% 7.0 mph SW11.3 kmh SW 18.0 mph29.0 kmh 29.86 in1011.2 mb 0.00 in0.0 mm 0.00 in0.0 mm 0.00 in0.0 mm
11:50 AM 85.4°F29.7°C 77.4°F25.2°C 77% 6.0 mph SW9.7 kmh SW 15.0 mph24.1 kmh 29.87 in1011.5 mb 0.00 in0.0 mm 0.00 in0.0 mm 0.00 in0.0 mm
11:55 AM 85.6°F29.8°C 77.2°F25.1°C 76% 4.0 mph WSW6.4 kmh WSW 10.0 mph16.1 kmh 29.86 in1011.2 mb 0.00 in0.0 mm 0.00 in0.0 mm 0.00 in0.0 mm
12:00 PM 85.7°F29.8°C 77.3°F25.2°C 76% 4.0 mph SW6.4 kmh SW 9.0 mph14.5 kmh 29.85 in1010.8 mb 0.00 in0.0 mm 0.00 in0.0 mm 0.00 in0.0 mm
12:05 PM 86.2°F30.1°C 76.9°F24.9°C 74% 3.0 mph SW4.8 kmh SW 9.0 mph14.5 kmh 29.86 in1011.2 mb 0.00 in0.0 mm 0.00 in0.0 mm 0.00 in0.0 mm
12:10 PM 86.2°F30.1°C 77.3°F25.2°C 75% 3.0 mph WSW4.8 kmh WSW 10.0 mph16.1 kmh 29.87 in1011.5 mb 0.00 in0.0 mm 0.00 in0.0 mm 0.00 in0.0 mm
12:15 PM 85.1°F29.5°C 77.5°F25.3°C 78% 4.0 mph WSW6.4 kmh WSW 13.0 mph20.9 kmh 29.87 in1011.5 mb 0.00 in0.0 mm 0.00 in0.0 mm 0.00 in0.0 mm
12:20 PM 84.5°F29.2°C 76.9°F24.9°C 78% 5.0 mph WSW8.0 kmh WSW 14.0 mph22.5 kmh 29.87 in1011.5 mb 0.00 in0.0 mm 0.00 in0.0 mm 0.00 in0.0 mm
12:25 PM 84.4°F29.1°C 76.8°F24.9°C 78% 5.0 mph WSW8.0 kmh WSW 14.0 mph22.5 kmh 29.86 in1011.2 mb 0.00 in0.0 mm 0.00 in0.0 mm 0.00 in0.0 mm
12:30 PM 84.6°F29.2°C 76.2°F24.6°C 76% 5.0 mph WSW8.0 kmh WSW 12.0 mph19.3 kmh 29.87 in1011.5 mb 0.00 in0.0 mm 0.00 in0.0 mm 0.00 in0.0 mm
12:35 PM 84.9°F29.4°C 76.9°F24.9°C 77% 5.0 mph WSW8.0 kmh WSW 12.0 mph19.3 kmh 29.86 in1011.2 mb 0.00 in0.0 mm 0.00 in0.0 mm 0.00 in0.0 mm
12:40 PM 84.8°F29.3°C 76.8°F24.9°C 77% 5.0 mph WSW8.0 kmh WSW 11.0 mph17.7 kmh 29.86 in1011.2 mb 0.01 in0.3 mm 0.12 in3.0 mm 0.01 in0.3 mm
12:45 PM 84.0°F28.9°C 76.4°F24.7°C 78% 5.0 mph WSW8.0 kmh WSW 11.0 mph17.7 kmh 29.86 in1011.2 mb 0.01 in0.3 mm 0.00 in0.0 mm 0.01 in0.3 mm
12:50 PM 83.3°F28.5°C 76.1°F24.5°C 79% 5.0 mph W8.0 kmh W 11.0 mph17.7 kmh 29.87 in1011.5 mb 0.01 in0.3 mm 0.00 in0.0 mm 0.01 in0.3 mm
12:55 PM 83.3°F28.5°C 77.2°F25.1°C 82% 4.0 mph W6.4 kmh W 10.0 mph16.1 kmh 29.86 in1011.2 mb 0.01 in0.3 mm 0.00 in0.0 mm 0.01 in0.3 mm
01:00 PM 83.5°F28.6°C 76.7°F24.8°C 80% 3.0 mph W4.8 kmh W 9.0 mph14.5 kmh 29.86 in1011.2 mb 0.01 in0.3 mm 0.00 in0.0 mm 0.01 in0.3 mm
01:05 PM 83.6°F28.7°C 77.1°F25.1°C 81% 3.0 mph W4.8 kmh W 10.0 mph16.1 kmh 29.85 in1010.8 mb 0.01 in0.3 mm 0.00 in0.0 mm 0.01 in0.3 mm
01:10 PM 83.5°F28.6°C 76.3°F24.6°C 79% 3.0 mph W4.8 kmh W 10.0 mph16.1 kmh 29.86 in1011.2 mb 0.01 in0.3 mm 0.00 in0.0 mm 0.01 in0.3 mm
01:15 PM 83.4°F28.6°C 75.8°F24.3°C 78% 4.0 mph W6.4 kmh W 10.0 mph16.1 kmh 29.86 in1011.2 mb 0.01 in0.3 mm 0.00 in0.0 mm 0.01 in0.3 mm
01:20 PM 83.4°F28.6°C 76.2°F24.6°C 79% 4.0 mph W6.4 kmh W 13.0 mph20.9 kmh 29.86 in1011.2 mb 0.01 in0.3 mm 0.00 in0.0 mm 0.01 in0.3 mm
01:25 PM 83.4°F28.6°C 75.8°F24.3°C 78% 6.0 mph WSW9.7 kmh WSW 15.0 mph24.1 kmh 29.87 in1011.5 mb 0.01 in0.3 mm 0.00 in0.0 mm 0.01 in0.3 mm
01:30 PM 83.4°F28.6°C 75.8°F24.3°C 78% 6.0 mph W9.7 kmh W 15.0 mph24.1 kmh 29.88 in1011.9 mb 0.01 in0.3 mm 0.00 in0.0 mm 0.01 in0.3 mm
01:35 PM 80.8°F27.1°C 69.7°F20.9°C 69% 8.0 mph NW12.9 kmh NW 24.0 mph38.6 kmh 29.89 in1012.2 mb 0.01 in0.3 mm 0.00 in0.0 mm 0.01 in0.3 mm
01:40 PM 77.3°F25.2°C 68.4°F20.2°C 74% 12.0 mph NW19.3 kmh NW 24.0 mph38.6 kmh 29.90 in1012.5 mb 0.00 in0.0 mm 0.00 in0.0 mm 0.01 in0.3 mm
01:45 PM 75.8°F24.3°C 68.1°F20.1°C 77% 11.0 mph NW17.7 kmh NW 22.0 mph35.4 kmh 29.91 in1012.9 mb 0.01 in0.3 mm 0.12 in3.0 mm 0.02 in0.5 mm
01:50 PM 74.0°F23.3°C 68.5°F20.3°C 83% 9.0 mph NW14.5 kmh NW 21.0 mph33.8 kmh 29.89 in1012.2 mb 0.09 in2.3 mm 0.96 in24.4 mm 0.10 in2.5 mm
01:55 PM 72.7°F22.6°C 68.3°F20.2°C 86% 10.0 mph NW16.1 kmh NW 21.0 mph33.8 kmh 29.89 in1012.2 mb 0.09 in2.3 mm 0.00 in0.0 mm 0.10 in2.5 mm
02:00 PM 72.1°F22.3°C 68.7°F20.4°C 89% 8.0 mph NW12.9 kmh NW 19.0 mph30.6 kmh 29.89 in1012.2 mb 0.09 in2.3 mm 0.00 in0.0 mm 0.10 in2.5 mm
02:05 PM 71.8°F22.1°C 68.7°F20.4°C 90% 7.0 mph NW11.3 kmh NW 13.0 mph20.9 kmh 29.90 in1012.5 mb 0.09 in2.3 mm 0.00 in0.0 mm 0.10 in2.5 mm
02:10 PM 71.7°F22.1°C 68.9°F20.5°C 91% 7.0 mph NW11.3 kmh NW 13.0 mph20.9 kmh 29.89 in1012.2 mb 0.09 in2.3 mm 0.00 in0.0 mm 0.10 in2.5 mm
02:15 PM 71.7°F22.1°C 68.9°F20.5°C 91% 6.0 mph NW9.7 kmh NW 14.0 mph22.5 kmh 29.90 in1012.5 mb 0.09 in2.3 mm 0.00 in0.0 mm 0.10 in2.5 mm
02:20 PM 71.7°F22.1°C 69.3°F20.7°C 92% 6.0 mph NW9.7 kmh NW 14.0 mph22.5 kmh 29.90 in1012.5 mb 0.09 in2.3 mm 0.00 in0.0 mm 0.10 in2.5 mm
02:25 PM 71.8°F22.1°C 69.0°F20.6°C 91% 6.0 mph NW9.7 kmh NW 13.0 mph20.9 kmh 29.90 in1012.5 mb 0.09 in2.3 mm 0.00 in0.0 mm 0.10 in2.5 mm
02:30 PM 72.0°F22.2°C 69.2°F20.7°C 91% 6.0 mph NW9.7 kmh NW 13.0 mph20.9 kmh 29.91 in1012.9 mb 0.10 in2.5 mm 0.12 in3.0 mm 0.11 in2.8 mm
02:35 PM 72.0°F22.2°C 69.5°F20.8°C 92% 6.0 mph NW9.7 kmh NW 14.0 mph22.5 kmh 29.91 in1012.9 mb 0.10 in2.5 mm 0.00 in0.0 mm 0.11 in2.8 mm
02:40 PM 71.8°F22.1°C 69.3°F20.7°C 92% 7.0 mph NW11.3 kmh NW 15.0 mph24.1 kmh 29.91 in1012.9 mb 0.13 in3.3 mm 0.36 in9.1 mm 0.14 in3.6 mm
02:45 PM 71.6°F22.0°C 69.2°F20.7°C 92% 8.0 mph NW12.9 kmh NW 16.0 mph25.7 kmh 29.91 in1012.9 mb 0.14 in3.6 mm 0.12 in3.0 mm 0.16 in4.1 mm
02:50 PM 71.2°F21.8°C 69.1°F20.6°C 93% 9.0 mph NW14.5 kmh NW 17.0 mph27.4 kmh 29.91 in1012.9 mb 0.12 in3.0 mm 0.00 in0.0 mm 0.22 in5.6 mm
02:55 PM 71.0°F21.7°C 68.9°F20.5°C 93% 8.0 mph NW12.9 kmh NW 19.0 mph30.6 kmh 29.91 in1012.9 mb 0.16 in4.1 mm 0.48 in12.2 mm 0.26 in6.6 mm
03:00 PM 70.8°F21.6°C 68.7°F20.4°C 93% 9.0 mph NW14.5 kmh NW 19.0 mph30.6 kmh 29.91 in1012.9 mb 0.19 in4.8 mm 0.03 in0.8 mm 0.29 in7.4 mm
03:05 PM 70.7°F21.5°C 68.9°F20.5°C 94% 7.0 mph NW11.3 kmh NW 15.0 mph24.1 kmh 29.92 in1013.2 mb 0.23 in5.8 mm 0.48 in12.2 mm 0.33 in8.4 mm
03:10 PM 70.5°F21.4°C 68.7°F20.4°C 94% 6.0 mph NW9.7 kmh NW 15.0 mph24.1 kmh 29.91 in1012.9 mb 0.25 in6.4 mm 0.24 in6.1 mm 0.35 in8.9 mm
03:15 PM 70.5°F21.4°C 68.7°F20.4°C 94% 7.0 mph NW11.3 kmh NW 15.0 mph24.1 kmh 29.92 in1013.2 mb 0.27 in6.9 mm 0.24 in6.1 mm 0.37 in9.4 mm
03:20 PM 70.4°F21.3°C 68.6°F20.3°C 94% 6.0 mph NW9.7 kmh NW 15.0 mph24.1 kmh 29.92 in1013.2 mb 0.28 in7.1 mm 0.12 in3.0 mm 0.38 in9.7 mm
03:25 PM 70.3°F21.3°C 68.8°F20.4°C 95% 4.0 mph NW6.4 kmh NW 10.0 mph16.1 kmh 29.91 in1012.9 mb 0.30 in7.6 mm 0.24 in6.1 mm 0.40 in10.2 mm
03:30 PM 70.3°F21.3°C 68.5°F20.3°C 94% 4.0 mph NW6.4 kmh NW 10.0 mph16.1 kmh 29.94 in1013.9 mb 0.31 in7.9 mm 0.12 in3.0 mm 0.42 in10.7 mm
03:35 PM 70.2°F21.2°C 68.4°F20.2°C 94% 4.0 mph WNW6.4 kmh WNW 11.0 mph17.7 kmh 29.96 in1014.6 mb 0.41 in10.4 mm 1.20 in30.5 mm 0.52 in13.2 mm
03:40 PM 70.1°F21.2°C 68.3°F20.2°C 94% 3.0 mph W4.8 kmh W 11.0 mph17.7 kmh 29.94 in1013.9 mb 0.47 in11.9 mm 0.72 in18.3 mm 0.61 in15.5 mm
03:45 PM 69.9°F21.1°C 68.4°F20.2°C 95% 3.0 mph WNW4.8 kmh WNW 10.0 mph16.1 kmh 29.94 in1013.9 mb 0.48 in12.2 mm 0.12 in3.0 mm 0.64 in16.3 mm
03:50 PM 69.9°F21.1°C 68.4°F20.2°C 95% 3.0 mph NW4.8 kmh NW 10.0 mph16.1 kmh 29.94 in1013.9 mb 0.45 in11.4 mm 0.00 in0.0 mm 0.67 in17.0 mm
03:55 PM 69.8°F21.0°C 68.3°F20.2°C 95% 3.0 mph NW4.8 kmh NW 10.0 mph16.1 kmh 29.94 in1013.9 mb 0.43 in10.9 mm 0.00 in0.0 mm 0.69 in17.5 mm
04:00 PM 69.8°F21.0°C 68.3°F20.2°C 95% 4.0 mph NW6.4 kmh NW 10.0 mph16.1 kmh 29.93 in1013.5 mb 0.41 in10.4 mm 0.00 in0.0 mm 0.70 in17.8 mm
04:05 PM 69.8°F21.0°C 68.6°F20.3°C 96% 3.0 mph NW4.8 kmh NW 8.0 mph12.9 kmh 29.93 in1013.5 mb 0.40 in10.2 mm 0.00 in0.0 mm 0.73 in18.5 mm
04:10 PM 69.8°F21.0°C 68.6°F20.3°C 96% 2.0 mph NW3.2 kmh NW 5.0 mph8.0 kmh 29.93 in1013.5 mb 0.40 in10.2 mm 0.00 in0.0 mm 0.75 in19.1 mm
04:15 PM 69.9°F21.1°C 68.7°F20.4°C 96% 2.0 mph NW3.2 kmh NW 5.0 mph8.0 kmh 29.92 in1013.2 mb 0.40 in10.2 mm 0.00 in0.0 mm 0.77 in19.6 mm
04:20 PM 69.9°F21.1°C 68.7°F20.4°C 96% 2.0 mph NW3.2 kmh NW 5.0 mph8.0 kmh 29.91 in1012.9 mb 0.41 in10.4 mm 0.12 in3.0 mm 0.79 in20.1 mm
04:25 PM 70.1°F21.2°C 68.9°F20.5°C 96% 1.0 mph NNW1.6 kmh NNW 4.0 mph6.4 kmh 29.91 in1012.9 mb 0.41 in10.4 mm 0.00 in0.0 mm 0.81 in20.6 mm
04:30 PM 70.4°F21.3°C 69.5°F20.8°C 97% 1.0 mph NNW1.6 kmh NNW 3.0 mph4.8 kmh 29.89 in1012.2 mb 0.40 in10.2 mm 0.00 in0.0 mm 0.82 in20.8 mm
04:35 PM 70.6°F21.4°C 69.4°F20.8°C 96% 2.0 mph ESE3.2 kmh ESE 10.0 mph16.1 kmh 29.85 in1010.8 mb 0.30 in7.6 mm 0.00 in0.0 mm 0.82 in20.8 mm
04:40 PM 70.7°F21.5°C 69.5°F20.8°C 96% 5.0 mph SE8.0 kmh SE 10.0 mph16.1 kmh 29.85 in1010.8 mb 0.21 in5.3 mm 0.00 in0.0 mm 0.82 in20.8 mm
04:45 PM 71.0°F21.7°C 69.8°F21.0°C 96% 6.0 mph SE9.7 kmh SE 10.0 mph16.1 kmh 29.85 in1010.8 mb 0.18 in4.6 mm 0.00 in0.0 mm 0.82 in20.8 mm
04:50 PM 71.6°F22.0°C 70.7°F21.5°C 97% 5.0 mph SE8.0 kmh SE 10.0 mph16.1 kmh 29.87 in1011.5 mb 0.15 in3.8 mm 0.00 in0.0 mm 0.82 in20.8 mm
04:55 PM 71.8°F22.1°C 70.6°F21.4°C 96% 3.0 mph E4.8 kmh E 9.0 mph14.5 kmh 29.87 in1011.5 mb 0.13 in3.3 mm 0.00 in0.0 mm 0.82 in20.8 mm
05:00 PM 71.9°F22.2°C 70.4°F21.3°C 95% 3.0 mph NNW4.8 kmh NNW 9.0 mph14.5 kmh 29.87 in1011.5 mb 0.12 in3.0 mm 0.00 in0.0 mm 0.82 in20.8 mm
05:05 PM 72.2°F22.3°C 70.4°F21.3°C 94% 1.0 mph NNW1.6 kmh NNW 5.0 mph8.0 kmh 29.87 in1011.5 mb 0.09 in2.3 mm 0.00 in0.0 mm 0.82 in20.8 mm
05:10 PM 72.4°F22.4°C 70.6°F21.4°C 94% 1.0 mph NW1.6 kmh NW 5.0 mph8.0 kmh 29.86 in1011.2 mb 0.07 in1.8 mm 0.00 in0.0 mm 0.82 in20.8 mm
05:15 PM 72.6°F22.6°C 70.8°F21.6°C 94% 1.0 mph NW1.6 kmh NW 4.0 mph6.4 kmh 29.86 in1011.2 mb 0.05 in1.3 mm 0.00 in0.0 mm 0.82 in20.8 mm
05:20 PM 73.0°F22.8°C 71.2°F21.8°C 94% 1.0 mph NW1.6 kmh NW 3.0 mph4.8 kmh 29.86 in1011.2 mb 0.03 in0.8 mm 0.00 in0.0 mm 0.82 in20.8 mm
05:25 PM 73.5°F23.1°C 71.4°F21.9°C 93% 1.0 mph W1.6 kmh W 5.0 mph8.0 kmh 29.86 in1011.2 mb 0.01 in0.3 mm 0.00 in0.0 mm 0.82 in20.8 mm
05:30 PM 73.5°F23.1°C 70.7°F21.5°C 91% 2.0 mph SSW3.2 kmh SSW 6.0 mph9.7 kmh 29.85 in1010.8 mb 0.00 in0.0 mm 0.00 in0.0 mm 0.82 in20.8 mm
05:35 PM 73.6°F23.1°C 70.8°F21.6°C 91% 3.0 mph S4.8 kmh S 6.0 mph9.7 kmh 29.85 in1010.8 mb 0.00 in0.0 mm 0.00 in0.0 mm 0.82 in20.8 mm
05:40 PM 73.5°F23.1°C 70.7°F21.5°C 91% 4.0 mph SSE6.4 kmh SSE 6.0 mph9.7 kmh 29.85 in1010.8 mb 0.00 in0.0 mm 0.00 in0.0 mm 0.82 in20.8 mm
05:45 PM 73.5°F23.1°C 70.7°F21.5°C 91% 3.0 mph SSE4.8 kmh SSE 5.0 mph8.0 kmh 29.85 in1010.8 mb 0.00 in0.0 mm 0.00 in0.0 mm 0.82 in20.8 mm
05:50 PM 73.3°F22.9°C 70.5°F21.4°C 91% 2.0 mph S3.2 kmh S 5.0 mph8.0 kmh 29.85 in1010.8 mb 0.00 in0.0 mm 0.00 in0.0 mm 0.82 in20.8 mm
05:55 PM 73.3°F22.9°C 70.8°F21.6°C 92% 1.0 mph S1.6 kmh S 3.0 mph4.8 kmh 29.85 in1010.8 mb 0.00 in0.0 mm 0.00 in0.0 mm 0.82 in20.8 mm
06:00 PM 73.5°F23.1°C 71.0°F21.7°C 92% 1.0 mph S1.6 kmh S 2.0 mph3.2 kmh 29.84 in1010.5 mb 0.00 in0.0 mm 0.00 in0.0 mm 0.82 in20.8 mm
06:05 PM 73.8°F23.2°C 71.3°F21.8°C 92% 1.0 mph S1.6 kmh S 3.0 mph4.8 kmh 29.84 in1010.5 mb 0.00 in0.0 mm 0.00 in0.0 mm 0.82 in20.8 mm
06:10 PM 74.2°F23.4°C 71.4°F21.9°C 91% 1.0 mph S1.6 kmh S 3.0 mph4.8 kmh 29.84 in1010.5 mb 0.00 in0.0 mm 0.00 in0.0 mm 0.82 in20.8 mm
06:15 PM 75.0°F23.9°C 71.9°F22.2°C 90% 2.0 mph S3.2 kmh S 5.0 mph8.0 kmh 29.84 in1010.5 mb 0.00 in0.0 mm 0.00 in0.0 mm 0.82 in20.8 mm
06:20 PM 75.9°F24.4°C 72.1°F22.3°C 88% 2.0 mph S3.2 kmh S 6.0 mph9.7 kmh 29.84 in1010.5 mb 0.00 in0.0 mm 0.00 in0.0 mm 0.82 in20.8 mm
06:25 PM 76.5°F24.7°C 72.7°F22.6°C 88% 3.0 mph S4.8 kmh S 6.0 mph9.7 kmh 29.84 in1010.5 mb 0.00 in0.0 mm 0.00 in0.0 mm 0.82 in20.8 mm
06:30 PM 76.3°F24.6°C 72.5°F22.5°C 88% 3.0 mph SSE4.8 kmh SSE 6.0 mph9.7 kmh 29.84 in1010.5 mb 0.00 in0.0 mm 0.00 in0.0 mm 0.82 in20.8 mm
06:35 PM 76.0°F24.4°C 72.2°F22.3°C 88% 3.0 mph SSE4.8 kmh SSE 6.0 mph9.7 kmh 29.84 in1010.5 mb 0.00 in0.0 mm 0.00 in0.0 mm 0.82 in20.8 mm
06:40 PM 75.6°F24.2°C 71.8°F22.1°C 88% 2.0 mph SSE3.2 kmh SSE 6.0 mph9.7 kmh 29.84 in1010.5 mb 0.00 in0.0 mm 0.00 in0.0 mm 0.82 in20.8 mm
06:45 PM 75.4°F24.1°C 71.9°F22.2°C 89% 2.0 mph SSE3.2 kmh SSE 3.0 mph4.8 kmh 29.84 in1010.5 mb 0.00 in0.0 mm 0.00 in0.0 mm 0.82 in20.8 mm
06:50 PM 75.1°F23.9°C 72.0°F22.2°C 90% 2.0 mph SSE3.2 kmh SSE 5.0 mph8.0 kmh 29.83 in1010.2 mb 0.00 in0.0 mm 0.00 in0.0 mm 0.82 in20.8 mm
06:55 PM 74.9°F23.8°C 71.4°F21.9°C 89% 2.0 mph SE3.2 kmh SE 5.0 mph8.0 kmh 29.83 in1010.2 mb 0.00 in0.0 mm 0.00 in0.0 mm 0.82 in20.8 mm
07:00 PM 74.9°F23.8°C 72.1°F22.3°C 91% 2.0 mph SSE3.2 kmh SSE 4.0 mph6.4 kmh 29.84 in1010.5 mb 0.00 in0.0 mm 0.00 in0.0 mm 0.82 in20.8 mm
07:05 PM 74.8°F23.8°C 72.0°F22.2°C 91% 1.0 mph SSE1.6 kmh SSE 2.0 mph3.2 kmh 29.84 in1010.5 mb 0.00 in0.0 mm 0.00 in0.0 mm 0.82 in20.8 mm
07:10 PM 74.9°F23.8°C 72.1°F22.3°C 91% 1.0 mph SSE1.6 kmh SSE 2.0 mph3.2 kmh 29.84 in1010.5 mb 0.00 in0.0 mm 0.00 in0.0 mm 0.82 in20.8 mm
07:15 PM 74.8°F23.8°C 71.3°F21.8°C 89% 1.0 mph SSE1.6 kmh SSE 3.0 mph4.8 kmh 29.84 in1010.5 mb 0.00 in0.0 mm 0.00 in0.0 mm 0.82 in20.8 mm
07:20 PM 74.8°F23.8°C 71.3°F21.8°C 89% 1.0 mph SSE1.6 kmh SSE 3.0 mph4.8 kmh 29.84 in1010.5 mb 0.00 in0.0 mm 0.00 in0.0 mm 0.82 in20.8 mm
07:25 PM 74.7°F23.7°C 71.6°F22.0°C 90% 1.0 mph SSE1.6 kmh SSE 3.0 mph4.8 kmh 29.85 in1010.8 mb 0.00 in0.0 mm 0.00 in0.0 mm 0.82 in20.8 mm
07:30 PM 74.6°F23.7°C 71.5°F21.9°C 90% 1.0 mph SSE1.6 kmh SSE 3.0 mph4.8 kmh 29.85 in1010.8 mb 0.00 in0.0 mm 0.00 in0.0 mm 0.82 in20.8 mm
07:35 PM 74.5°F23.6°C 71.4°F21.9°C 90% Calm Calm 2.0 mph3.2 kmh 29.86 in1011.2 mb 0.00 in0.0 mm 0.00 in0.0 mm 0.82 in20.8 mm
07:40 PM 74.4°F23.6°C 71.3°F21.8°C 90% 1.0 mph SSE1.6 kmh SSE 2.0 mph3.2 kmh 29.86 in1011.2 mb 0.00 in0.0 mm 0.00 in0.0 mm 0.82 in20.8 mm
07:45 PM 74.3°F23.5°C 71.5°F21.9°C 91% 1.0 mph SSE1.6 kmh SSE 2.0 mph3.2 kmh 29.86 in1011.2 mb 0.00 in0.0 mm 0.00 in0.0 mm 0.82 in20.8 mm
07:50 PM 74.1°F23.4°C 71.0°F21.7°C 90% 1.0 mph SSE1.6 kmh SSE 3.0 mph4.8 kmh 29.86 in1011.2 mb 0.00 in0.0 mm 0.00 in0.0 mm 0.82 in20.8 mm
07:55 PM 74.0°F23.3°C 70.9°F21.6°C 90% 1.0 mph SSE1.6 kmh SSE 3.0 mph4.8 kmh 29.86 in1011.2 mb 0.00 in0.0 mm 0.00 in0.0 mm 0.82 in20.8 mm
08:00 PM 73.8°F23.2°C 70.7°F21.5°C 90% 2.0 mph SSE3.2 kmh SSE 3.0 mph4.8 kmh 29.86 in1011.2 mb 0.00 in0.0 mm 0.00 in0.0 mm 0.82 in20.8 mm
08:05 PM 73.7°F23.2°C 70.9°F21.6°C 91% 1.0 mph SSE1.6 kmh SSE 3.0 mph4.8 kmh 29.86 in1011.2 mb 0.00 in0.0 mm 0.00 in0.0 mm 0.82 in20.8 mm
08:10 PM 73.5°F23.1°C 71.0°F21.7°C 92% 1.0 mph SSE1.6 kmh SSE 3.0 mph4.8 kmh 29.86 in1011.2 mb 0.00 in0.0 mm 0.00 in0.0 mm 0.82 in20.8 mm
08:15 PM 73.3°F22.9°C 70.8°F21.6°C 92% 1.0 mph SSE1.6 kmh SSE 3.0 mph4.8 kmh 29.86 in1011.2 mb 0.00 in0.0 mm 0.00 in0.0 mm 0.82 in20.8 mm
08:20 PM 73.0°F22.8°C 70.5°F21.4°C 92% 1.0 mph SSE1.6 kmh SSE 3.0 mph4.8 kmh 29.86 in1011.2 mb 0.00 in0.0 mm 0.00 in0.0 mm 0.82 in20.8 mm
08:25 PM 72.9°F22.7°C 70.4°F21.3°C 92% 1.0 mph SSE1.6 kmh SSE 3.0 mph4.8 kmh 29.86 in1011.2 mb 0.00 in0.0 mm 0.00 in0.0 mm 0.82 in20.8 mm
08:30 PM 72.6°F22.6°C 70.1°F21.2°C 92% 1.0 mph SSE1.6 kmh SSE 2.0 mph3.2 kmh 29.86 in1011.2 mb 0.00 in0.0 mm 0.00 in0.0 mm 0.82 in20.8 mm
08:35 PM 72.4°F22.4°C 70.3°F21.3°C 93% 1.0 mph SSE1.6 kmh SSE 2.0 mph3.2 kmh 29.86 in1011.2 mb 0.00 in0.0 mm 0.00 in0.0 mm 0.82 in20.8 mm
08:40 PM 72.1°F22.3°C 70.0°F21.1°C 93% 1.0 mph SSE1.6 kmh SSE 2.0 mph3.2 kmh 29.86 in1011.2 mb 0.00 in0.0 mm 0.00 in0.0 mm 0.82 in20.8 mm
08:45 PM 71.9°F22.2°C 69.8°F21.0°C 93% Calm Calm 2.0 mph3.2 kmh 29.87 in1011.5 mb 0.00 in0.0 mm 0.00 in0.0 mm 0.82 in20.8 mm
08:50 PM 71.7°F22.1°C 69.9°F21.1°C 94% Calm Calm 2.0 mph3.2 kmh 29.87 in1011.5 mb 0.00 in0.0 mm 0.00 in0.0 mm 0.82 in20.8 mm
08:55 PM 71.6°F22.0°C 69.8°F21.0°C 94% 1.0 mph SSE1.6 kmh SSE 2.0 mph3.2 kmh 29.88 in1011.9 mb 0.00 in0.0 mm 0.00 in0.0 mm 0.82 in20.8 mm
09:00 PM 71.5°F21.9°C 69.7°F20.9°C 94% 1.0 mph SSE1.6 kmh SSE 3.0 mph4.8 kmh 29.88 in1011.9 mb 0.00 in0.0 mm 0.00 in0.0 mm 0.82 in20.8 mm
09:05 PM 71.4°F21.9°C 69.6°F20.9°C 94% 2.0 mph SSE3.2 kmh SSE 3.0 mph4.8 kmh 29.88 in1011.9 mb 0.00 in0.0 mm 0.00 in0.0 mm 0.82 in20.8 mm
09:10 PM 71.3°F21.8°C 69.8°F21.0°C 95% 2.0 mph SSE3.2 kmh SSE 3.0 mph4.8 kmh 29.88 in1011.9 mb 0.00 in0.0 mm 0.00 in0.0 mm 0.82 in20.8 mm
09:15 PM 71.3°F21.8°C 69.8°F21.0°C 95% 2.0 mph SSE3.2 kmh SSE 4.0 mph6.4 kmh 29.89 in1012.2 mb 0.00 in0.0 mm 0.00 in0.0 mm 0.82 in20.8 mm
09:20 PM 71.3°F21.8°C 69.8°F21.0°C 95% 2.0 mph SSE3.2 kmh SSE 4.0 mph6.4 kmh 29.89 in1012.2 mb 0.00 in0.0 mm 0.00 in0.0 mm 0.82 in20.8 mm
09:25 PM 71.2°F21.8°C 69.7°F20.9°C 95% 2.0 mph SSE3.2 kmh SSE 4.0 mph6.4 kmh 29.89 in1012.2 mb 0.00 in0.0 mm 0.00 in0.0 mm 0.82 in20.8 mm
09:30 PM 71.1°F21.7°C 69.6°F20.9°C 95% 2.0 mph SSE3.2 kmh SSE 4.0 mph6.4 kmh 29.89 in1012.2 mb 0.00 in0.0 mm 0.00 in0.0 mm 0.82 in20.8 mm
09:35 PM 71.0°F21.7°C 69.5°F20.8°C 95% 2.0 mph SSE3.2 kmh SSE 4.0 mph6.4 kmh 29.89 in1012.2 mb 0.00 in0.0 mm 0.00 in0.0 mm 0.82 in20.8 mm
09:40 PM 70.9°F21.6°C 69.4°F20.8°C 95% 2.0 mph SSE3.2 kmh SSE 4.0 mph6.4 kmh 29.89 in1012.2 mb 0.00 in0.0 mm 0.00 in0.0 mm 0.82 in20.8 mm
09:45 PM 70.9°F21.6°C 69.4°F20.8°C 95% 1.0 mph SSE1.6 kmh SSE 3.0 mph4.8 kmh 29.90 in1012.5 mb 0.00 in0.0 mm 0.00 in0.0 mm 0.82 in20.8 mm
09:50 PM 70.9°F21.6°C 69.4°F20.8°C 95% 2.0 mph SSE3.2 kmh SSE 4.0 mph6.4 kmh 29.90 in1012.5 mb 0.00 in0.0 mm 0.00 in0.0 mm 0.82 in20.8 mm
09:55 PM 70.8°F21.6°C 69.3°F20.7°C 95% 3.0 mph SE4.8 kmh SE 5.0 mph8.0 kmh 29.90 in1012.5 mb 0.00 in0.0 mm 0.00 in0.0 mm 0.82 in20.8 mm
10:00 PM 70.8°F21.6°C 69.3°F20.7°C 95% 3.0 mph SSE4.8 kmh SSE 6.0 mph9.7 kmh 29.90 in1012.5 mb 0.00 in0.0 mm 0.00 in0.0 mm 0.82 in20.8 mm
10:05 PM 70.9°F21.6°C 69.4°F20.8°C 95% 3.0 mph SSE4.8 kmh SSE 6.0 mph9.7 kmh 29.90 in1012.5 mb 0.00 in0.0 mm 0.00 in0.0 mm 0.82 in20.8 mm
10:10 PM 70.8°F21.6°C 69.3°F20.7°C 95% 3.0 mph SE4.8 kmh SE 6.0 mph9.7 kmh 29.90 in1012.5 mb 0.00 in0.0 mm 0.00 in0.0 mm 0.82 in20.8 mm
10:15 PM 70.7°F21.5°C 69.2°F20.7°C 95% 3.0 mph SSE4.8 kmh SSE 6.0 mph9.7 kmh 29.90 in1012.5 mb 0.00 in0.0 mm 0.00 in0.0 mm 0.82 in20.8 mm
10:20 PM 70.7°F21.5°C 69.2°F20.7°C 95% 3.0 mph SSE4.8 kmh SSE 6.0 mph9.7 kmh 29.91 in1012.9 mb 0.00 in0.0 mm 0.00 in0.0 mm 0.82 in20.8 mm
10:25 PM 70.7°F21.5°C 69.2°F20.7°C 95% 4.0 mph S6.4 kmh S 6.0 mph9.7 kmh 29.91 in1012.9 mb 0.00 in0.0 mm 0.00 in0.0 mm 0.82 in20.8 mm
10:30 PM 70.7°F21.5°C 69.2°F20.7°C 95% 3.0 mph S4.8 kmh S 5.0 mph8.0 kmh 29.91 in1012.9 mb 0.00 in0.0 mm 0.00 in0.0 mm 0.82 in20.8 mm
10:35 PM 70.6°F21.4°C 69.1°F20.6°C 95% 3.0 mph S4.8 kmh S 4.0 mph6.4 kmh 29.91 in1012.9 mb 0.00 in0.0 mm 0.00 in0.0 mm 0.82 in20.8 mm
10:40 PM 70.5°F21.4°C 69.0°F20.6°C 95% 3.0 mph S4.8 kmh S 4.0 mph6.4 kmh 29.91 in1012.9 mb 0.00 in0.0 mm 0.00 in0.0 mm 0.82 in20.8 mm
10:45 PM 70.4°F21.3°C 68.9°F20.5°C 95% 3.0 mph S4.8 kmh S 5.0 mph8.0 kmh 29.91 in1012.9 mb 0.00 in0.0 mm 0.00 in0.0 mm 0.82 in20.8 mm
10:50 PM 70.4°F21.3°C 69.2°F20.7°C 96% 3.0 mph SSE4.8 kmh SSE 6.0 mph9.7 kmh 29.92 in1013.2 mb 0.00 in0.0 mm 0.00 in0.0 mm 0.82 in20.8 mm
10:55 PM 70.3°F21.3°C 69.1°F20.6°C 96% 3.0 mph S4.8 kmh S 6.0 mph9.7 kmh 29.92 in1013.2 mb 0.00 in0.0 mm 0.00 in0.0 mm 0.82 in20.8 mm
11:00 PM 70.3°F21.3°C 69.1°F20.6°C 96% 3.0 mph S4.8 kmh S 5.0 mph8.0 kmh 29.92 in1013.2 mb 0.00 in0.0 mm 0.00 in0.0 mm 0.82 in20.8 mm
11:05 PM 70.2°F21.2°C 69.0°F20.6°C 96% 3.0 mph S4.8 kmh S 6.0 mph9.7 kmh 29.92 in1013.2 mb 0.00 in0.0 mm 0.00 in0.0 mm 0.82 in20.8 mm
11:10 PM 70.2°F21.2°C 69.0°F20.6°C 96% 3.0 mph S4.8 kmh S 7.0 mph11.3 kmh 29.92 in1013.2 mb 0.00 in0.0 mm 0.00 in0.0 mm 0.82 in20.8 mm
11:15 PM 70.1°F21.2°C 68.9°F20.5°C 96% 3.0 mph S4.8 kmh S 7.0 mph11.3 kmh 29.92 in1013.2 mb 0.00 in0.0 mm 0.00 in0.0 mm 0.82 in20.8 mm
11:20 PM 70.1°F21.2°C 68.9°F20.5°C 96% 3.0 mph S4.8 kmh S 7.0 mph11.3 kmh 29.92 in1013.2 mb 0.00 in0.0 mm 0.00 in0.0 mm 0.82 in20.8 mm
11:25 PM 70.0°F21.1°C 68.8°F20.4°C 96% 4.0 mph S6.4 kmh S 7.0 mph11.3 kmh 29.92 in1013.2 mb 0.00 in0.0 mm 0.00 in0.0 mm 0.82 in20.8 mm
11:30 PM 70.0°F21.1°C 68.8°F20.4°C 96% 4.0 mph S6.4 kmh S 6.0 mph9.7 kmh 29.92 in1013.2 mb 0.00 in0.0 mm 0.00 in0.0 mm 0.82 in20.8 mm
11:35 PM 70.0°F21.1°C 68.8°F20.4°C 96% 4.0 mph S6.4 kmh S 6.0 mph9.7 kmh 29.92 in1013.2 mb 0.00 in0.0 mm 0.00 in0.0 mm 0.82 in20.8 mm
11:40 PM 70.0°F21.1°C 68.8°F20.4°C 96% 3.0 mph S4.8 kmh S 6.0 mph9.7 kmh 29.92 in1013.2 mb 0.00 in0.0 mm 0.00 in0.0 mm 0.82 in20.8 mm
11:45 PM 69.9°F21.1°C 68.7°F20.4°C 96% 3.0 mph S4.8 kmh S 5.0 mph8.0 kmh 29.92 in1013.2 mb 0.00 in0.0 mm 0.00 in0.0 mm 0.82 in20.8 mm
11:50 PM 69.9°F21.1°C 68.7°F20.4°C 96% 3.0 mph S4.8 kmh S 5.0 mph8.0 kmh 29.92 in1013.2 mb 0.00 in0.0 mm 0.00 in0.0 mm 0.82 in20.8 mm
11:55 PM 69.9°F21.1°C 68.7°F20.4°C 96% 4.0 mph S6.4 kmh S 6.0 mph9.7 kmh 29.92 in1013.2 mb 0.00 in0.0 mm 0.00 in0.0 mm 0.82 in20.8 mm